Time;durP1;ratioP1;P1;durP2;ratioP2;P2;SDS_P1;SDS_P2;PMS_P1;PMS_P2;Temp;Humidity;BMP_temperature;BMP_pressure;BME280_temperature;BME280_humidity;BME280_pressure;Samples;Min_cycle;Max_cycle;Signal;HPM_P1;HPM_P2
2024/04/12 04:58:58;;;;;;;9.85;6.78;;;6.50;99.90;;;;;;6620047;21;21314;31
2024/04/12 05:01:25;;;;;;;8.87;7.03;;;6.50;99.90;;;;;;5671333;21;20286;-92
2024/04/12 05:09:06;;;;;;;7.22;5.60;;;6.60;99.90;;;;;;6253414;21;20275;-93
2024/04/12 05:17:04;;;;;;;7.83;6.10;;;6.90;99.90;;;;;;5773450;21;20274;-92
2024/04/12 05:22:03;;;;;;;9.82;6.72;;;7.20;99.90;;;;;;5333878;26;20694;-90
2024/04/12 05:24:29;;;;;;;7.07;5.80;;;7.30;99.90;;;;;;5329341;26;20241;-90
2024/04/12 05:27:01;;;;;;;9.23;6.40;;;7.30;99.90;;;;;;5349701;26;20268;-93
2024/04/12 05:29:28;;;;;;;7.10;5.90;;;7.40;99.90;;;;;;5337923;26;21197;-92
2024/04/12 05:31:57;;;;;;;8.95;6.10;;;7.50;99.90;;;;;;5344676;26;20228;-93
2024/04/12 05:34:26;;;;;;;6.50;5.78;;;7.70;99.90;;;;;;5353046;26;20796;-93
2024/04/12 05:37:00;;;;;;;11.05;6.55;;;8.00;99.90;;;;;;5346935;26;20225;-92
2024/04/12 05:39:26;;;;;;;8.95;6.28;;;8.30;99.90;;;;;;5346871;26;20271;-91
2024/04/12 05:41:55;;;;;;;7.68;6.10;;;8.30;99.30;;;;;;5339961;26;20234;-92
2024/04/12 05:44:21;;;;;;;8.43;5.90;;;8.40;99.40;;;;;;5330510;26;20231;-92
2024/04/12 05:46:50;;;;;;;8.63;5.93;;;8.50;99.30;;;;;;5338222;26;20309;-95
2024/04/12 05:49:17;;;;;;;8.13;6.00;;;8.70;98.70;;;;;;5352129;26;20276;-95
2024/04/12 05:52:06;;;;;;;5.40;4.80;;;8.70;98.60;;;;;;5350842;26;20234;-94
2024/04/12 05:54:39;;;;;;;7.38;5.05;;;8.80;99.00;;;;;;5361393;26;20355;-95
2024/04/12 05:57:10;;;;;;;8.23;5.57;;;8.90;98.60;;;;;;5368892;26;20237;-94
2024/04/12 05:59:42;;;;;;;6.97;5.75;;;9.00;98.80;;;;;;5680692;21;20296;-94
2024/04/12 06:04:55;;;;;;;8.05;5.22;;;9.30;98.50;;;;;;5358680;26;20237;-93
2024/04/12 06:07:27;;;;;;;12.70;5.40;;;9.50;98.20;;;;;;5358127;26;20225;-96
2024/04/12 06:15:36;;;;;;;9.27;6.03;;;9.70;96.70;;;;;;6481913;21;20478;-95
2024/04/12 06:18:02;;;;;;;7.30;4.65;;;9.90;97.00;;;;;;5670097;21;20265;-91
2024/04/12 06:20:33;;;;;;;7.15;5.15;;;10.50;95.60;;;;;;5363377;26;20746;-95
2024/04/12 06:23:06;;;;;;;7.03;4.65;;;11.00;93.80;;;;;;5520279;21;20261;-96
2024/04/12 06:25:38;;;;;;;11.52;6.45;;;11.10;92.40;;;;;;5941256;21;21318;-93
2024/04/12 06:33:12;;;;;;;10.45;5.55;;;11.10;92.60;;;;;;5307846;26;20303;-93
2024/04/12 06:35:40;;;;;;;45.28;31.08;;;11.50;92.40;;;;;;5308366;26;20274;-92
2024/04/12 06:38:11;;;;;;;11.57;5.20;;;11.80;91.30;;;;;;5307540;26;20807;-92
2024/04/12 06:40:37;;;;;;;7.68;4.80;;;11.80;90.00;;;;;;5306001;26;20351;-92
2024/04/12 06:43:11;;;;;;;8.07;5.18;;;11.70;89.40;;;;;;5334589;26;20238;-92
2024/04/12 06:45:41;;;;;;;7.15;4.63;;;11.70;89.70;;;;;;5304786;26;20269;-93
2024/04/12 06:48:16;;;;;;;12.32;7.57;;;11.70;90.30;;;;;;5659359;21;20293;-96
2024/04/12 06:53:24;;;;;;;17.48;13.13;;;12.80;85.50;;;;;;5408458;21;20559;-95
2024/04/12 06:55:56;;;;;;;6.45;4.00;;;13.60;76.30;;;;;;5354864;26;20289;-94
2024/04/12 07:01:05;;;;;;;7.45;4.65;;;13.70;73.20;;;;;;6069718;21;20301;-95
2024/04/12 07:14:46;;;;;;;9.85;6.80;;;13.80;69.30;;;;;;6278714;21;20319;-93
2024/04/12 07:17:23;;;;;;;8.65;4.47;;;14.10;62.30;;;;;;5344232;26;20249;-95
2024/04/12 07:19:52;;;;;;;7.20;4.97;;;14.00;62.40;;;;;;5336422;26;20237;-94
2024/04/12 07:22:19;;;;;;;6.28;4.80;;;14.00;62.10;;;;;;5345742;26;20257;-95
2024/04/12 07:24:50;;;;;;;6.60;5.40;;;13.90;62.60;;;;;;5348079;26;20238;-95
2024/04/12 07:27:18;;;;;;;6.55;5.70;;;14.00;65.90;;;;;;5354028;26;20276;-94
2024/04/12 07:29:52;;;;;;;8.38;5.40;;;14.10;65.60;;;;;;5355971;26;20273;-96
2024/04/12 07:32:22;;;;;;;7.20;5.45;;;14.00;60.00;;;;;;5340457;26;20238;-94
2024/04/12 07:34:55;;;;;;;6.32;4.38;;;14.20;63.50;;;;;;5363287;26;20291;-93
2024/04/12 07:37:31;;;;;;;7.80;5.15;;;14.50;63.80;;;;;;5343653;26;20230;-95
2024/04/12 07:48:23;;;;;;;6.22;5.22;;;14.90;53.70;;;;;;5818700;21;20305;-94
2024/04/12 09:18:51;;;;;;;8.40;5.90;;;22.20;14.00;;;;;;6563790;21;20334;31
2024/04/12 09:23:57;;;;;;;7.70;5.60;;;23.50;11.00;;;;;;5967883;21;20303;-91
2024/04/12 11:33:31;;;;;;;7.05;5.35;;;21.10;15.40;;;;;;6533297;22;20268;-91
2024/04/12 12:42:12;;;;;;;7.25;6.53;;;21.50;11.90;;;;;;6458555;21;20926;-93
2024/04/12 12:58:18;;;;;;;7.40;6.18;;;21.40;11.90;;;;;;5411954;21;23746530;-86
2024/04/12 13:00:45;;;;;;;9.25;6.78;;;21.50;12.00;;;;;;6572312;21;20221;-91
2024/04/12 13:03:17;;;;;;;8.70;5.90;;;21.50;11.90;;;;;;6571358;21;20263;-87
2024/04/12 13:05:45;;;;;;;7.80;6.32;;;21.40;12.60;;;;;;6571644;21;20687;-87
2024/04/12 13:08:15;;;;;;;12.73;6.93;;;21.40;11.90;;;;;;6573678;21;20319;-90
2024/04/12 13:10:41;;;;;;;8.90;6.93;;;21.50;12.00;;;;;;6593868;21;20270;-92
2024/04/12 13:13:17;;;;;;;9.73;6.60;;;21.30;11.80;;;;;;6578825;21;20267;-93
2024/04/12 13:15:44;;;;;;;9.43;7.97;;;21.20;13.30;;;;;;6541441;21;20244;-91
2024/04/12 13:18:12;;;;;;;9.23;6.68;;;21.00;14.00;;;;;;6585956;21;20814;-90
2024/04/12 13:20:38;;;;;;;13.77;7.53;;;21.10;13.60;;;;;;6583840;21;20233;-90
2024/04/12 13:23:07;;;;;;;8.07;7.28;;;21.20;13.50;;;;;;6578730;21;20259;-90
2024/04/12 13:25:33;;;;;;;11.15;7.57;;;21.00;13.00;;;;;;6585077;21;20252;-90
2024/04/12 13:28:05;;;;;;;8.80;7.10;;;21.10;12.40;;;;;;6574589;21;20303;-91
2024/04/12 13:30:40;;;;;;;7.47;6.50;;;21.00;12.70;;;;;;6588928;21;20292;-93
2024/04/12 13:33:09;;;;;;;11.40;8.68;;;21.00;12.60;;;;;;6587703;21;20352;-92
2024/04/12 13:35:40;;;;;;;12.52;6.65;;;21.10;13.20;;;;;;6592584;21;20691;-93
2024/04/12 13:38:12;;;;;;;10.45;6.80;;;21.30;12.70;;;;;;6576728;21;20726;-93
2024/04/12 13:40:40;;;;;;;13.30;6.78;;;21.50;13.80;;;;;;6586791;21;20287;-93
2024/04/12 13:43:13;;;;;;;11.18;7.70;;;21.50;11.90;;;;;;6583215;21;20655;-90
2024/04/12 13:51:16;;;;;;;14.25;7.45;;;21.30;14.10;;;;;;6576174;21;20276;-89
2024/04/12 13:53:45;;;;;;;11.18;7.90;;;21.40;13.50;;;;;;6573023;21;20272;-90
2024/04/12 13:56:20;;;;;;;13.18;7.55;;;21.20;12.20;;;;;;6574782;21;20348;-88
2024/04/12 13:58:53;;;;;;;8.70;7.40;;;21.10;13.30;;;;;;6574025;21;20240;-89
2024/04/12 14:01:22;;;;;;;8.85;7.72;;;21.20;13.20;;;;;;6528424;21;20277;-89
2024/04/12 14:03:53;;;;;;;11.95;7.72;;;21.00;13.30;;;;;;6576558;21;20227;-91
2024/04/12 14:06:23;;;;;;;12.73;8.23;;;20.90;13.50;;;;;;6579698;21;20233;-93
2024/04/12 14:08:52;;;;;;;8.20;7.25;;;20.80;13.00;;;;;;6571440;21;20333;-91
2024/04/12 14:11:17;;;;;;;8.88;8.00;;;20.80;14.50;;;;;;6572003;21;20229;-91
2024/04/12 14:13:46;;;;;;;8.57;7.60;;;20.70;14.30;;;;;;6579211;21;20225;-90
2024/04/12 14:16:13;;;;;;;10.70;7.68;;;20.70;14.00;;;;;;6577050;21;20734;-93
2024/04/12 14:18:44;;;;;;;10.57;8.23;;;20.70;14.20;;;;;;6575850;21;20224;-90
2024/04/12 14:21:10;;;;;;;8.80;7.70;;;20.80;13.20;;;;;;6573788;21;20737;-92
2024/04/12 14:23:39;;;;;;;11.85;6.50;;;20.90;13.90;;;;;;6577686;21;20241;-90
2024/04/12 14:26:07;;;;;;;8.32;6.45;;;21.00;14.60;;;;;;6572538;21;20238;-92
2024/04/12 14:28:36;;;;;;;9.15;6.30;;;21.20;14.00;;;;;;6578769;21;20754;-92
2024/04/12 14:31:02;;;;;;;7.97;6.72;;;21.20;13.10;;;;;;6578970;21;21293;-91
2024/04/12 14:33:31;;;;;;;9.52;6.65;;;21.30;13.10;;;;;;6577897;21;20233;-92
2024/04/12 14:36:01;;;;;;;8.40;6.10;;;21.30;15.10;;;;;;6571995;21;20229;-90
2024/04/12 14:38:29;;;;;;;12.15;6.60;;;21.20;14.50;;;;;;6575774;21;20225;-91
2024/04/12 14:40:59;;;;;;;9.93;6.25;;;21.10;14.50;;;;;;6577581;21;20330;-90
2024/04/12 14:43:28;;;;;;;7.22;5.18;;;20.80;14.00;;;;;;6577466;21;20221;-89
2024/04/12 14:45:54;;;;;;;9.75;5.28;;;20.70;14.10;;;;;;6578026;21;20267;-90
2024/04/12 14:48:23;;;;;;;7.47;6.30;;;20.80;14.20;;;;;;6580773;21;20232;-95
2024/04/12 14:50:49;;;;;;;9.07;6.82;;;20.90;14.40;;;;;;6570892;21;20257;-94
2024/04/12 14:53:20;;;;;;;10.50;6.30;;;21.00;14.80;;;;;;6593821;21;20304;-94
2024/04/12 14:58:20;;;;;;;8.40;6.55;;;21.10;14.60;;;;;;6494138;22;20246;-93
2024/04/12 15:49:35;;;;;;;6.68;5.18;;;20.10;14.60;;;;;;6446550;22;20382;-92
2024/04/12 15:52:10;;;;;;;5.07;4.28;;;20.10;14.70;;;;;;6421811;22;20227;-92
2024/04/12 15:54:45;;;;;;;6.07;4.45;;;20.00;14.70;;;;;;6418870;22;20220;-93
2024/04/12 16:15:57;;;;;;;6.38;5.53;;;19.80;15.40;;;;;;2638624;25;76518852;-94
2024/04/12 16:18:28;;;;;;;6.63;5.22;;;19.80;16.00;;;;;;5547061;25;20239;-93
2024/04/12 16:20:54;;;;;;;8.63;6.13;;;19.80;16.00;;;;;;5543574;25;20228;-93
2024/04/12 16:23:23;;;;;;;10.40;5.80;;;19.80;16.10;;;;;;5546138;25;20232;-93
2024/04/12 16:25:50;;;;;;;8.68;5.63;;;19.80;15.90;;;;;;5538984;25;20270;-93
2024/04/12 16:28:21;;;;;;;7.47;5.57;;;19.70;16.10;;;;;;5506733;25;20240;-93
2024/04/12 16:30:46;;;;;;;10.57;5.75;;;19.70;16.30;;;;;;5537272;25;20233;-93
2024/04/12 16:33:18;;;;;;;6.88;6.00;;;19.60;16.50;;;;;;5545499;25;20228;-93
2024/04/12 16:35:44;;;;;;;6.45;5.25;;;19.50;16.50;;;;;;5538057;25;20231;-93
2024/04/12 16:38:14;;;;;;;8.57;6.20;;;19.40;16.30;;;;;;5538454;25;20231;-93
2024/04/12 16:40:40;;;;;;;6.95;5.10;;;19.30;16.90;;;;;;5547370;25;20231;-92
2024/04/12 16:43:08;;;;;;;9.38;5.18;;;19.20;16.80;;;;;;5538826;25;20273;-93
2024/04/12 16:45:34;;;;;;;8.82;4.75;;;19.10;17.40;;;;;;5535052;25;20309;-93
2024/04/12 16:50:41;;;;;;;5.78;5.00;;;19.10;16.70;;;;;;5728790;21;20322;-93
2024/04/12 16:53:07;;;;;;;5.55;4.93;;;19.00;17.20;;;;;;5450661;21;20337;-93
2024/04/12 16:55:36;;;;;;;8.02;5.70;;;18.90;17.60;;;;;;5493056;21;20309;-92
2024/04/12 16:58:04;;;;;;;8.32;6.25;;;18.90;18.30;;;;;;5384735;26;20323;-93
2024/04/12 17:00:35;;;;;;;7.75;5.68;;;18.90;18.50;;;;;;5523084;21;20255;-94
2024/04/12 17:03:01;;;;;;;5.70;4.38;;;18.80;18.40;;;;;;5434300;26;20242;-92
2024/04/12 17:05:29;;;;;;;8.23;5.70;;;18.70;18.60;;;;;;5439554;26;20266;-93
2024/04/12 17:07:59;;;;;;;12.35;5.05;;;18.60;18.60;;;;;;5412178;26;20278;-94
2024/04/12 17:10:30;;;;;;;7.18;5.15;;;18.60;19.70;;;;;;5455428;26;20428;-92
2024/04/12 17:12:56;;;;;;;8.88;5.43;;;18.50;19.30;;;;;;5464761;26;20231;-93
2024/04/12 17:18:00;;;;;;;7.97;5.60;;;18.50;19.90;;;;;;5378998;21;20304;-92
2024/04/12 17:20:26;;;;;;;10.77;5.85;;;18.40;20.20;;;;;;5354187;26;20311;-92
2024/04/12 17:30:37;;;;;;;14.25;6.85;;;17.90;22.70;;;;;;5361826;26;20284;-92
2024/04/12 17:33:29;;;;;;;9.05;6.38;;;17.80;23.20;;;;;;5755039;21;20253;-94
2024/04/12 17:35:58;;;;;;;10.07;6.00;;;17.70;23.60;;;;;;5360952;26;21615;-93
2024/04/12 17:38:24;;;;;;;10.38;6.43;;;17.60;24.70;;;;;;5380210;26;20383;-91
2024/04/12 17:40:55;;;;;;;9.95;7.05;;;17.50;25.80;;;;;;5372074;26;20245;-89
2024/04/12 17:43:21;;;;;;;9.00;6.35;;;17.50;25.00;;;;;;5383124;26;20243;-92
2024/04/12 17:46:09;;;;;;;8.07;7.28;;;17.40;25.40;;;;;;5559744;21;20264;-93
2024/04/12 17:48:35;;;;;;;8.65;6.78;;;17.30;26.20;;;;;;5858355;21;20295;-93
2024/04/12 18:04:22;;;;;;;10.15;8.40;;;16.70;29.30;;;;;;6004444;21;20368;-93
2024/04/12 18:54:46;;;;;;;10.27;8.40;;;15.40;49.10;;;;;;1578262;22;20567;-92
2024/04/12 18:57:12;;;;;;;14.45;9.13;;;15.30;49.70;;;;;;5296874;26;20239;-93
2024/04/12 19:02:30;;;;;;;11.63;9.13;;;15.20;49.20;;;;;;5355764;22;20297;-95
2024/04/12 19:07:57;;;;;;;13.35;9.82;;;15.10;48.10;;;;;;6340869;21;20703;-93
2024/04/12 19:31:39;;;;;;;11.43;8.57;;;14.90;51.30;;;;;;5420137;21;21160;-94
2024/04/12 19:49:52;;;;;;;13.27;9.10;;;14.70;66.70;;;;;;5389657;21;20346;-94
2024/04/12 19:55:32;;;;;;;13.70;8.93;;;14.50;66.70;;;;;;5494936;21;20307;-94
2024/04/12 20:06:41;;;;;;;17.08;9.70;;;13.90;69.60;;;;;;5544600;21;20329;-93
2024/04/12 20:09:07;;;;;;;14.85;9.35;;;13.80;71.70;;;;;;5644834;21;20295;-93
2024/04/12 20:17:10;;;;;;;18.95;13.75;;;13.60;76.30;;;;;;5657590;21;20311;-93
2024/04/12 20:40:23;;;;;;;12.60;10.73;;;12.80;87.00;;;;;;5278020;27;20283;-93
2024/04/12 20:42:51;;;;;;;15.82;10.55;;;12.80;87.20;;;;;;5288692;26;20334;-93
2024/04/12 20:45:20;;;;;;;15.70;10.27;;;12.70;87.80;;;;;;5278545;26;20275;-94
2024/04/12 20:47:47;;;;;;;12.65;9.93;;;12.70;88.60;;;;;;5277418;27;20239;-94
2024/04/12 20:50:16;;;;;;;16.25;10.43;;;12.80;89.70;;;;;;5265169;27;20239;-93
2024/04/12 20:52:43;;;;;;;18.17;9.77;;;12.80;88.60;;;;;;5263914;27;20273;-93
2024/04/12 20:55:13;;;;;;;14.13;9.77;;;12.80;88.40;;;;;;5278350;27;20289;-94
2024/04/12 20:57:41;;;;;;;15.73;10.20;;;12.70;88.40;;;;;;5272310;27;20617;-94
2024/04/12 21:00:14;;;;;;;14.75;10.05;;;12.70;88.90;;;;;;5267263;27;20300;-94
2024/04/12 21:02:42;;;;;;;11.38;9.68;;;12.80;88.30;;;;;;5278580;27;20287;-93
2024/04/12 21:08:02;;;;;;;14.15;9.15;;;12.70;88.50;;;;;;5287963;27;20768;-93
2024/04/12 21:10:31;;;;;;;13.68;9.73;;;12.70;88.80;;;;;;5285689;27;20874;-93
2024/04/12 21:13:11;;;;;;;14.70;9.27;;;12.70;88.30;;;;;;5281542;27;20745;-93
2024/04/12 21:15:39;;;;;;;11.98;8.55;;;12.60;88.50;;;;;;5281327;27;20318;-93
2024/04/12 21:18:17;;;;;;;12.73;9.40;;;12.60;88.60;;;;;;5281757;27;20587;-94
2024/04/12 21:20:43;;;;;;;11.48;8.70;;;12.60;88.70;;;;;;5282107;27;20677;-93
2024/04/12 21:23:19;;;;;;;12.35;8.85;;;12.60;89.00;;;;;;5285543;27;20244;-93
2024/04/12 21:25:54;;;;;;;13.77;9.43;;;12.50;89.00;;;;;;5284085;27;20280;-93
2024/04/12 21:39:56;;;;;;;15.50;9.52;;;12.30;90.20;;;;;;5261911;27;20299;-93
2024/04/12 21:42:33;;;;;;;11.88;8.48;;;12.30;90.20;;;;;;5266809;27;20298;-94
2024/04/12 21:45:25;;;;;;;12.02;9.45;;;12.30;90.20;;;;;;5274219;27;20236;-93
2024/04/12 21:47:55;;;;;;;14.38;9.70;;;12.20;90.30;;;;;;5278901;27;20291;-94
2024/04/12 21:50:32;;;;;;;12.48;9.00;;;12.10;90.80;;;;;;5276246;27;20289;-93
2024/04/12 21:53:00;;;;;;;15.18;9.07;;;12.10;90.80;;;;;;5277716;27;20287;-94
2024/04/12 21:55:34;;;;;;;10.52;9.05;;;12.00;90.70;;;;;;5275366;27;20608;-94
2024/04/12 21:58:04;;;;;;;12.73;9.63;;;11.90;90.70;;;;;;5264083;27;20236;-94
2024/04/12 22:00:35;;;;;;;13.88;9.18;;;11.90;90.70;;;;;;5272609;27;20249;-94
2024/04/12 22:03:01;;;;;;;14.68;9.27;;;11.80;90.70;;;;;;5269108;27;20859;-93
2024/04/12 22:05:33;;;;;;;13.10;9.43;;;11.70;90.70;;;;;;5285683;27;20231;-94
2024/04/12 22:08:02;;;;;;;12.15;9.23;;;11.70;91.10;;;;;;5264534;27;20236;-94
2024/04/12 22:10:31;;;;;;;11.48;9.20;;;11.60;91.30;;;;;;5267332;27;20366;-94
2024/04/12 22:12:57;;;;;;;13.23;9.43;;;11.60;91.30;;;;;;5273564;27;20251;-94
2024/04/12 22:15:26;;;;;;;10.27;8.50;;;11.50;91.60;;;;;;5270683;27;20705;-93
2024/04/12 22:17:58;;;;;;;11.43;8.48;;;11.50;92.10;;;;;;5273240;26;20433;-93
2024/04/12 22:20:27;;;;;;;11.25;8.68;;;11.60;92.30;;;;;;5276267;27;20231;-92
2024/04/12 22:22:53;;;;;;;10.30;8.90;;;11.60;92.10;;;;;;5276602;27;20243;-94
2024/04/12 22:25:22;;;;;;;14.27;9.00;;;11.50;92.00;;;;;;5275258;27;20577;-94
2024/04/12 22:27:48;;;;;;;13.93;9.10;;;11.50;92.20;;;;;;5264682;27;20355;-94
2024/04/12 22:30:17;;;;;;;13.50;9.27;;;11.40;92.30;;;;;;5265611;27;20248;-93
2024/04/12 22:32:43;;;;;;;10.82;8.82;;;11.30;92.40;;;;;;5274633;27;20275;-94
2024/04/12 22:35:14;;;;;;;14.18;8.95;;;11.30;92.60;;;;;;5265927;27;20243;-93
2024/04/12 22:37:40;;;;;;;10.50;8.75;;;11.30;92.80;;;;;;5271742;27;20363;-94
2024/04/12 22:40:09;;;;;;;12.20;8.93;;;11.30;93.00;;;;;;5267511;27;20255;-94
2024/04/12 22:42:35;;;;;;;12.40;9.00;;;11.30;92.90;;;;;;5271533;27;20248;-94
2024/04/12 22:45:04;;;;;;;14.38;8.80;;;11.20;93.00;;;;;;5264335;27;20270;-93
2024/04/12 22:47:30;;;;;;;12.35;8.13;;;11.30;92.90;;;;;;5268702;27;20337;-94
2024/04/12 22:49:59;;;;;;;13.07;8.73;;;11.30;92.90;;;;;;5268363;27;20725;-94
2024/04/12 22:52:27;;;;;;;11.73;8.63;;;11.30;93.00;;;;;;5267666;27;20240;-94
2024/04/12 22:54:56;;;;;;;11.18;8.80;;;11.20;93.00;;;;;;5265748;27;20341;-93
2024/04/12 22:57:22;;;;;;;12.35;9.02;;;11.10;93.30;;;;;;5276109;27;20231;-94
2024/04/12 22:59:50;;;;;;;14.77;8.95;;;11.10;93.70;;;;;;5264248;27;20283;-94
2024/04/12 23:02:16;;;;;;;11.80;9.43;;;11.00;93.80;;;;;;5269717;27;20278;-94
2024/04/12 23:04:45;;;;;;;15.27;8.75;;;10.90;93.90;;;;;;5266670;27;20260;-93
2024/04/12 23:07:14;;;;;;;13.32;8.98;;;10.90;93.90;;;;;;5286550;27;20307;-94
2024/04/12 23:09:45;;;;;;;12.95;9.68;;;10.80;94.30;;;;;;5270801;27;20240;-91
2024/04/12 23:12:11;;;;;;;14.02;9.30;;;10.80;94.60;;;;;;5268414;27;20337;-94
2024/04/12 23:14:39;;;;;;;13.27;9.48;;;10.80;94.90;;;;;;5273345;27;20247;-94
2024/04/12 23:17:05;;;;;;;11.23;9.48;;;10.80;94.80;;;;;;5263826;27;20288;-93
2024/04/12 23:19:34;;;;;;;13.38;9.15;;;10.80;94.70;;;;;;5263542;27;20335;-94
2024/04/12 23:22:00;;;;;;;16.40;9.93;;;10.80;94.80;;;;;;5271548;27;20321;-93
2024/04/12 23:24:28;;;;;;;10.57;9.38;;;10.70;94.70;;;;;;5280186;27;20243;-94
2024/04/12 23:26:57;;;;;;;11.63;9.63;;;10.60;94.80;;;;;;5262677;27;20368;-94
2024/04/12 23:29:25;;;;;;;13.90;8.82;;;10.60;95.00;;;;;;5274114;27;20299;-94
2024/04/12 23:31:51;;;;;;;10.80;9.05;;;10.60;95.30;;;;;;5268533;27;20243;-94
2024/04/12 23:34:20;;;;;;;9.75;8.50;;;10.70;95.10;;;;;;5276721;27;20270;-94
2024/04/12 23:36:46;;;;;;;9.45;8.40;;;10.60;95.00;;;;;;5257223;27;20870;-94
2024/04/12 23:39:15;;;;;;;12.60;9.60;;;10.70;95.20;;;;;;5264877;27;20300;-93
2024/04/12 23:41:41;;;;;;;11.20;8.95;;;10.70;94.80;;;;;;5263049;27;20232;-93
2024/04/12 23:44:12;;;;;;;12.27;9.13;;;10.60;94.90;;;;;;5272188;27;20235;-94
2024/04/12 23:46:38;;;;;;;11.68;8.98;;;10.60;95.10;;;;;;5273494;27;20322;-93
2024/04/12 23:49:07;;;;;;;13.05;9.30;;;10.50;95.20;;;;;;5264766;27;20268;-94
2024/04/12 23:51:33;;;;;;;11.63;9.23;;;10.50;95.40;;;;;;5273378;27;20294;-94
2024/04/12 23:54:01;;;;;;;13.98;8.52;;;10.40;95.50;;;;;;5268338;27;20624;-94
2024/04/12 23:56:28;;;;;;;10.07;8.55;;;10.50;95.50;;;;;;5255741;27;20262;-94
2024/04/12 23:58:57;;;;;;;11.40;8.55;;;10.40;95.60;;;;;;5271087;27;20260;-94
